Terminal Aerodrome Forecast
Issued by NWS San Angelo, TX

Home | Current Version | Previous Version | Text Only | Print | Product List | Glossary On
Versions: 1 2 3 4 5 6 7 8 9 10 11 12
000
FTUS44 KSJT 191120
TAFABI
TAF
KABI 191120Z 1912/2012 18010KT P6SM BKN250
     FM191500 19015G23KT P6SM SCT250
     FM191800 19015G22KT P6SM SCT050
     FM200100 17012KT P6SM VCSH SCT060 BKN250=

USA.gov is the U.S. government's official web portal to all federal, state and local government web resources and services.